• Join FlightAware (Why Join?)
  • Login
  • US Flag 
02:40AM EDT


 

Airport Tracker/Info


-or-


 

Live Flight TrackerFlight Track Log ✈ PDT4456 ✈ 14-Jun-2013 ✈ KSYR - KBOS

Flight Track Log - Related Links

Times and Time Zones

All times are in EDT time to prevent confusion due to time zone crossing. See the PDT4456 flight status page for this flight to view local times or setup timezone preferences in your user account.

Time Position Orientation Groundspeed Altitude Reporting Facility
EDT Latitude Longitude Course Direction KTS MPH feet Rate Location/Type
05:22PM 43.1100 -76.1178 154° Southeast 69 79 1,100  Level Boston Center
05:23PM 43.0903 -76.1508 231° Southwest 140 161 3,100 1,620 Climbing Boston Center
05:24PM 43.0808 -76.1217 114° Southeast 147 169 3,800 1,440 Climbing Boston Center
05:24PM 43.0731 -76.1014 118° Southeast 147 169 4,600 1,380 Climbing Boston Center
05:25PM 43.1167 -75.9169 90° East  Level FlightAware Approximate
05:25PM 43.0617 -76.0722 118° Southeast 164 189 5,200  Level Boston Center
05:25PM 43.0433 -76.0514 140° Southeast 168 193 6,100 1,380 Climbing Boston Center
05:26PM 43.0977 -75.8310 144° Southeast  Level FlightAware Approximate
05:26PM 43.0317 -76.0250 121° Southeast 175 201 6,600  Level Boston Center
05:27PM 43.0394 -75.7726 144° Southeast  Level FlightAware Approximate
05:27PM 43.0128 -75.9642 113° Southeast 180 207 7,900  Level Boston Center
05:28PM 42.9807 -75.7149 154° Southeast  Level FlightAware Approximate
05:28PM 43.0167 -75.9078 85° East 159 183 9,500  Level Boston Center
05:29PM 43.0206 -75.8511 85° East 144 166 10,800 1,200 Climbing Boston Center
05:30PM 43.0222 -75.7944 88° East 144 166 12,000 1,200 Climbing Boston Center
05:31PM 43.0156 -75.7344 99° East 144 166 13,200 1,140 Climbing Boston Center
05:32PM 43.0069 -75.6686 100° East 155 178 14,300 1,140 Climbing Boston Center
05:33PM 42.9983 -75.6056 101° East 167 192 15,500 1,080 Climbing Boston Center
05:34PM 42.9897 -75.5428 101° East 167 192 16,500 660 Climbing Boston Center
05:35PM 42.9811 -75.4686 99° East 174 200 16,900 180 Climbing Boston Center
05:36PM 42.9689 -75.3828 101° East 200 230 16,900  Level Boston Center
05:37PM 42.9525 -75.2883 103° East 234 269 16,900  Level Boston Center
05:38PM 42.9403 -75.1886 99° East 250 288 16,900  Level Boston Center
05:39PM 42.9281 -75.0914 100° East 256 295 16,900  Level Boston Center
05:40PM 42.9178 -75.0003 99° East 261 300 16,900  Level Boston Center
05:41PM 42.9031 -74.9033 102° East 261 300 16,900  Level Boston Center
05:42PM 42.8867 -74.7922 101° East 269 310 16,900  Level Boston Center
05:43PM 42.8719 -74.7008 102° East 269 310 16,900  Level Boston Center
05:44PM 42.8594 -74.5928 99° East 263 303 17,000  Climbing Boston Center
05:45PM 42.8444 -74.5044 103° East 263 303 17,000  Level Boston Center
05:46PM 42.8317 -74.3936 99° East 263 303 17,000  Level Boston Center
05:47PM 42.8208 -74.3028 99° East 263 303 17,000  Level Boston Center
05:48PM 42.8036 -74.1947 102° East 263 303 17,000  Level Boston Center
05:49PM 42.7925 -74.1067 100° East 263 303 17,000  Level Boston Center
05:50PM 42.7772 -74.0014 101° East 255 293 17,000  Level Boston Center
05:51PM 42.7658 -73.9247 101° East 262 302 17,000  Level Boston Center
05:52PM 42.7486 -73.8058 101° East 262 302 17,000  Level Boston Center
05:53PM 42.7539 -73.7011 86° East 263 303 17,000  Level Boston Center
05:54PM 42.7592 -73.6108 85° East 252 290 17,000  Level Boston Center
05:55PM 42.7664 -73.5119 84° East 252 290 17,000  Level Boston Center
05:56PM 42.7756 -73.4131 83° East 252 290 17,000  Level Boston Center
05:57PM 42.7700 -73.3169 94° East 252 290 17,000  Level Boston Center
05:58PM 42.7500 -73.2206 106° East 259 298 17,000  Level Boston Center
05:59PM 42.7317 -73.1242 104° East 266 306 17,000  Level Boston Center
06:00PM 42.7156 -73.0250 102° East 259 298 17,000  Level Boston Center
06:01PM 42.7078 -72.9403 97° East 259 298 17,000 -120 Level Boston Center
06:02PM 42.6894 -72.8214 102° East 259 298 16,800 -720 Descending Boston Center
06:03PM 42.6669 -72.6942 103° East 269 310 15,300 -1,500 Descending Boston Center
06:04PM 42.6461 -72.5869 105° East 281 323 13,900 -1,380 Descending Boston Center
06:05PM 42.6233 -72.4825 106° East 281 323 12,600 -1,320 Descending Boston Center
06:06PM 42.6025 -72.3781 105° East 281 323 11,300 -1,440 Descending Boston Center
06:07PM 42.5817 -72.2681 104° East 281 323 9,800 -1,200 Descending Boston Center
06:08PM 42.5689 -72.1864 102° East 258 297 9,000 -420 Descending Boston Center
06:09PM 42.5708 -72.0906 88° East 231 266 9,000  Level Boston Center
06:10PM 42.5767 -72.0228 83° East 231 266 9,000  Level Boston Center
06:11PM 42.5889 -71.9211 81° East 231 266 9,000  Level Boston Center
06:12PM 42.5989 -71.8422 80° East 231 266 9,000  Level Boston Center
06:13PM 42.6108 -71.7489 80° East 226 260 9,000  Level Boston Center
06:14PM 42.6042 -71.6786 97° East 226 260 9,000  Level Boston Center
06:15PM 42.6000 -71.6167 95° East 239 275 9,000 -600 Level KA90
06:15PM 42.5667 -71.5500 124° Southeast 258 297 8,300 -1,080 Descending KA90
06:16PM 42.5500 -71.4500 103° East 266 306 7,000 -660 Descending KA90
06:18PM 42.5167 -71.3500 114° Southeast 247 284 7,000  Level KA90
06:19PM 42.5000 -71.2667 105° East 241 277 7,000 -120 Level KA90
06:20PM 42.4333 -71.2167 151° Southeast 252 290 6,800 -900 Descending KA90
06:20PM 42.3833 -71.2000 166° South 258 297 5,400 -1,500 Descending KA90
06:21PM 42.3314 -71.2183 195° South 247 284 4,100 -780 Descending Boston Center
06:22PM 42.2586 -71.2394 192° South 240 276 4,000 -240 Descending Boston Center
06:23PM 42.2517 -71.1750 98° East 139 160 3,700 -300 Descending Boston Center